Westminster, Texas
Current Conditions -  °F | °C
As of 3:53 PM on Tuesday 25 Nov 2014 (Local Time) from KTKI Reporting Station
Clear Clear  
Wind Chill: 60°   Ceiling: Unl
Heat Index: 60°   Visibility: 10mi
Dew Point: 28°   Wind: 9mph
Humidity: 30%   Direction: 280°W
Pressure: 30.16"   Gusts: NA
Location:  33.36°N, 96.46°W
Report Text: KTKI 252153Z 28008KT 10SM CLR 16/M02 A3016 RMK AO2 SLP223 T01561022
Loading
Personal Weather Stations






























Interactive Weather Map New forecast layout! Learn more

10-Day Weather Forecast

Advertisements
Track Severe Weather on mobile